Time;durP1;ratioP1;P1;durP2;ratioP2;P2;SDS_P1;SDS_P2;PMS_P1;PMS_P2;Temp;Humidity;BMP_temperature;BMP_pressure;BME280_temperature;BME280_humidity;BME280_pressure;Samples;Min_cycle;Max_cycle;Signal;HPM_P1;HPM_P2
2023/03/17 00:02:23;;;;;;;10.30;5.87;;;3.60;99.90;;;;;;5056041;28;20193;-95
2023/03/17 00:04:51;;;;;;;12.57;6.73;;;3.60;99.90;;;;;;5073543;28;20660;-95
2023/03/17 00:07:18;;;;;;;11.50;6.40;;;3.60;99.90;;;;;;5077666;28;20196;-95
2023/03/17 00:09:46;;;;;;;14.53;6.70;;;3.60;99.90;;;;;;5061124;28;20283;-95
2023/03/17 00:12:14;;;;;;;14.03;6.53;;;3.70;99.90;;;;;;5055183;28;20563;-95
2023/03/17 00:14:43;;;;;;;13.53;6.60;;;3.70;99.90;;;;;;5055000;28;20189;-93
2023/03/17 00:17:13;;;;;;;11.67;6.03;;;3.70;99.90;;;;;;5059084;28;20208;-93
2023/03/17 00:19:42;;;;;;;14.37;6.40;;;3.70;99.90;;;;;;5060034;28;20184;-96
2023/03/17 00:22:16;;;;;;;13.33;6.87;;;3.70;99.90;;;;;;5041748;28;20243;-95
2023/03/17 00:24:43;;;;;;;11.90;6.47;;;3.70;99.90;;;;;;5041641;28;20661;-96
2023/03/17 00:27:13;;;;;;;13.27;7.10;;;3.70;99.90;;;;;;5059761;28;20279;-94
2023/03/17 00:29:40;;;;;;;12.17;6.67;;;3.80;99.90;;;;;;5070306;28;20275;-94
2023/03/17 00:32:16;;;;;;;11.77;6.40;;;3.70;99.90;;;;;;5079409;28;20196;-96
2023/03/17 00:34:43;;;;;;;10.40;6.20;;;3.80;99.90;;;;;;5079244;28;20191;-95
2023/03/17 00:37:11;;;;;;;13.70;7.27;;;3.70;99.90;;;;;;5077693;28;20220;-95
2023/03/17 00:39:38;;;;;;;12.70;6.50;;;3.80;99.90;;;;;;5061225;28;20196;-95
2023/03/17 00:42:06;;;;;;;12.97;7.23;;;3.80;99.90;;;;;;5058416;28;20197;-95
2023/03/17 00:44:34;;;;;;;14.73;6.83;;;3.80;99.90;;;;;;5063290;28;20192;-96
2023/03/17 00:47:01;;;;;;;11.80;7.43;;;3.80;99.90;;;;;;5079085;28;20212;-95
2023/03/17 00:49:28;;;;;;;12.40;6.93;;;3.80;99.90;;;;;;5058845;28;20676;-95
2023/03/17 00:51:55;;;;;;;11.70;7.03;;;3.80;99.90;;;;;;5038769;28;20228;-95
2023/03/17 00:54:22;;;;;;;15.10;7.00;;;3.80;99.90;;;;;;5037943;28;20241;-95
2023/03/17 00:56:50;;;;;;;15.03;6.80;;;3.80;99.90;;;;;;5038038;28;20205;-95
2023/03/17 00:59:26;;;;;;;11.97;7.13;;;3.80;99.90;;;;;;5069875;28;20200;-95
2023/03/17 01:01:55;;;;;;;10.90;7.07;;;3.70;99.90;;;;;;5075125;28;20204;-95
2023/03/17 01:04:21;;;;;;;13.37;7.70;;;3.70;99.90;;;;;;5059207;28;20228;-94
2023/03/17 01:06:50;;;;;;;14.63;7.13;;;3.70;99.90;;;;;;5057689;28;20203;-95
2023/03/17 01:09:19;;;;;;;16.50;7.93;;;3.70;99.90;;;;;;5058426;28;20197;-96
2023/03/17 01:11:47;;;;;;;13.27;7.17;;;3.70;99.90;;;;;;5051323;28;20568;-95
2023/03/17 01:14:14;;;;;;;16.70;7.53;;;3.70;99.90;;;;;;5077751;28;20663;-94
2023/03/17 01:16:41;;;;;;;17.37;7.50;;;3.70;99.90;;;;;;5059911;28;20216;-94
2023/03/17 01:19:09;;;;;;;15.43;7.33;;;3.70;99.90;;;;;;5057880;28;20545;-95
2023/03/17 01:21:36;;;;;;;17.50;7.93;;;3.70;99.90;;;;;;5070685;28;20194;-93
2023/03/17 01:24:03;;;;;;;14.53;6.97;;;3.70;99.90;;;;;;5064939;28;20202;-95
2023/03/17 01:26:30;;;;;;;12.87;7.37;;;3.70;99.90;;;;;;5057993;28;20625;-96
2023/03/17 01:28:57;;;;;;;11.40;6.87;;;3.70;99.90;;;;;;5074267;28;20189;-95
2023/03/17 01:31:25;;;;;;;12.67;6.70;;;3.70;99.90;;;;;;5058355;28;20189;-94
2023/03/17 01:33:52;;;;;;;11.90;6.47;;;3.80;99.90;;;;;;5037883;28;20252;-95
2023/03/17 01:36:21;;;;;;;17.33;7.50;;;3.80;99.90;;;;;;5037807;28;20306;-95
2023/03/17 01:38:49;;;;;;;14.47;7.50;;;3.70;99.90;;;;;;5037208;28;20224;-95
2023/03/17 01:41:17;;;;;;;18.23;7.50;;;3.80;99.90;;;;;;5037203;28;20193;-96
2023/03/17 01:43:43;;;;;;;15.47;7.77;;;3.80;99.90;;;;;;5037166;28;20189;-96
2023/03/17 01:46:25;;;;;;;15.37;7.77;;;3.80;99.90;;;;;;5037514;28;20192;-96
2023/03/17 01:49:08;;;;;;;12.27;7.17;;;3.70;99.90;;;;;;5037282;28;20212;-96
2023/03/17 01:51:41;;;;;;;13.77;6.87;;;3.80;99.90;;;;;;5037406;28;20189;-95
2023/03/17 01:54:13;;;;;;;14.60;7.17;;;3.70;99.90;;;;;;5036783;28;20233;-95
2023/03/17 01:56:43;;;;;;;13.77;7.70;;;3.80;99.90;;;;;;5043841;28;20303;-94
2023/03/17 01:59:18;;;;;;;12.97;7.47;;;3.80;99.90;;;;;;5072969;28;20188;-95
2023/03/17 02:01:49;;;;;;;17.20;8.40;;;3.70;99.90;;;;;;5058150;28;20552;-95
2023/03/17 02:04:18;;;;;;;15.50;7.90;;;3.70;99.90;;;;;;5056966;28;20196;-95
2023/03/17 02:06:49;;;;;;;16.43;8.30;;;3.70;99.90;;;;;;5037703;28;20727;-94
2023/03/17 02:09:16;;;;;;;14.87;7.67;;;3.60;99.90;;;;;;5059943;28;20188;-95
2023/03/17 02:11:44;;;;;;;12.77;7.90;;;3.50;99.90;;;;;;5075417;28;20299;-94
2023/03/17 02:14:11;;;;;;;15.07;7.90;;;3.50;99.90;;;;;;5060510;28;20176;-96
2023/03/17 02:16:38;;;;;;;15.07;9.37;;;3.40;99.90;;;;;;5066148;28;20219;-94
2023/03/17 02:19:04;;;;;;;19.53;10.87;;;3.50;99.90;;;;;;5057968;28;20260;-95
2023/03/17 02:21:44;;;;;;;21.63;11.27;;;3.40;99.90;;;;;;5057464;28;20204;-96
2023/03/17 02:24:18;;;;;;;16.87;8.77;;;3.50;99.90;;;;;;5057711;28;20249;-94
2023/03/17 02:26:48;;;;;;;16.97;9.70;;;3.40;99.90;;;;;;5058427;28;20192;-95
2023/03/17 02:29:15;;;;;;;17.80;8.27;;;3.50;99.90;;;;;;5036217;28;20203;-94
2023/03/17 02:31:43;;;;;;;19.00;8.50;;;3.50;99.90;;;;;;5036028;28;20287;-94
2023/03/17 02:34:10;;;;;;;14.93;8.80;;;3.50;99.90;;;;;;5036341;28;20193;-94
2023/03/17 02:36:37;;;;;;;16.80;8.67;;;3.50;99.90;;;;;;5035997;28;20584;-95
2023/03/17 02:39:05;;;;;;;16.40;8.33;;;3.60;99.90;;;;;;5035218;28;20197;-94
2023/03/17 02:41:33;;;;;;;19.57;9.00;;;3.60;99.90;;;;;;5046196;28;20196;-95
2023/03/17 02:44:00;;;;;;;16.03;8.97;;;3.60;99.90;;;;;;5047332;28;20220;-95
2023/03/17 02:46:27;;;;;;;17.50;8.73;;;3.70;99.90;;;;;;5060013;28;20195;-96
2023/03/17 02:48:55;;;;;;;16.33;8.70;;;3.80;99.90;;;;;;5059264;28;20319;-95
2023/03/17 02:51:22;;;;;;;16.53;8.87;;;3.70;99.90;;;;;;5058403;28;20246;-96
2023/03/17 02:53:49;;;;;;;19.33;9.40;;;3.80;99.90;;;;;;5047664;28;20308;-96
2023/03/17 02:56:17;;;;;;;15.90;9.33;;;3.80;99.90;;;;;;5056133;28;20216;-94
2023/03/17 02:58:45;;;;;;;15.47;8.83;;;3.80;99.90;;;;;;5058282;28;20712;-96
2023/03/17 03:01:12;;;;;;;15.47;9.00;;;3.80;99.90;;;;;;5057749;28;20214;-95
2023/03/17 03:03:38;;;;;;;17.83;8.83;;;3.80;99.90;;;;;;5057749;28;20229;-95
2023/03/17 03:06:06;;;;;;;18.93;9.50;;;3.80;99.90;;;;;;5055889;28;20196;-94
2023/03/17 03:08:33;;;;;;;20.30;9.70;;;3.70;99.90;;;;;;5062248;28;20188;-95
2023/03/17 03:11:01;;;;;;;16.70;9.13;;;3.60;99.90;;;;;;5058085;28;20288;-96
2023/03/17 03:13:29;;;;;;;20.27;9.60;;;3.50;99.90;;;;;;5073864;28;20242;-95
2023/03/17 03:15:56;;;;;;;19.67;9.60;;;3.30;99.90;;;;;;5035462;28;20708;-95
2023/03/17 03:18:24;;;;;;;19.40;9.80;;;3.20;99.90;;;;;;5050252;28;20587;-93
2023/03/17 03:20:50;;;;;;;19.23;10.10;;;3.10;99.90;;;;;;5055827;28;20205;-95
2023/03/17 03:23:17;;;;;;;17.77;9.60;;;3.00;99.90;;;;;;5055586;28;20188;-94
2023/03/17 03:25:44;;;;;;;20.03;10.07;;;2.80;99.90;;;;;;5037017;28;20279;-96
2023/03/17 03:28:11;;;;;;;17.90;9.63;;;2.80;99.90;;;;;;5035879;28;20193;-94
2023/03/17 03:30:39;;;;;;;19.03;9.43;;;2.70;99.90;;;;;;5035150;28;20208;-93
2023/03/17 03:33:06;;;;;;;18.37;10.33;;;2.60;99.90;;;;;;5035186;28;20189;-94
2023/03/17 03:35:34;;;;;;;19.97;10.63;;;2.60;99.90;;;;;;5036171;28;20197;-94
2023/03/17 03:38:01;;;;;;;23.27;10.10;;;2.50;99.90;;;;;;5054636;28;20219;-94
2023/03/17 03:40:28;;;;;;;20.23;10.50;;;2.50;99.90;;;;;;5066754;28;20198;-95
2023/03/17 03:42:55;;;;;;;18.77;9.87;;;2.50;99.90;;;;;;5076156;28;20581;-95
2023/03/17 03:45:22;;;;;;;18.53;10.17;;;2.40;99.90;;;;;;5074730;28;20206;-94
2023/03/17 03:47:50;;;;;;;19.27;10.80;;;2.40;99.90;;;;;;5075108;28;20208;-95
2023/03/17 03:50:17;;;;;;;20.27;10.63;;;2.30;99.90;;;;;;5074986;28;20644;-93
2023/03/17 03:52:44;;;;;;;17.47;9.90;;;2.30;99.90;;;;;;5073232;28;20227;-94
2023/03/17 03:55:11;;;;;;;18.70;10.00;;;2.30;99.90;;;;;;5054797;28;20203;-96
2023/03/17 03:57:38;;;;;;;22.07;10.33;;;2.20;99.90;;;;;;5054498;28;20208;-94
2023/03/17 04:00:06;;;;;;;20.27;9.73;;;2.20;99.90;;;;;;5041308;28;20576;-94
2023/03/17 04:02:33;;;;;;;19.93;10.50;;;2.20;99.90;;;;;;5034625;28;20192;-93
2023/03/17 04:05:01;;;;;;;23.10;10.17;;;2.20;99.90;;;;;;5038282;28;20209;-93
2023/03/17 04:07:28;;;;;;;18.13;10.43;;;2.30;99.90;;;;;;5034466;28;20199;-93
2023/03/17 04:09:55;;;;;;;19.37;10.17;;;2.30;99.90;;;;;;5068761;28;20201;-93
2023/03/17 04:12:22;;;;;;;19.90;10.23;;;2.40;99.90;;;;;;5074306;28;20203;-94
2023/03/17 04:14:49;;;;;;;18.13;10.27;;;2.40;99.90;;;;;;5063722;28;20234;-93
2023/03/17 04:17:16;;;;;;;19.87;10.43;;;2.40;99.90;;;;;;5056216;28;20257;-95
2023/03/17 04:19:42;;;;;;;23.00;10.37;;;2.50;99.90;;;;;;5074391;28;20204;-94
2023/03/17 04:22:12;;;;;;;21.50;11.10;;;2.50;99.90;;;;;;5074451;28;20217;-95
2023/03/17 04:24:39;;;;;;;19.00;9.70;;;2.50;99.90;;;;;;5048030;28;20704;-94
2023/03/17 04:27:06;;;;;;;20.73;10.13;;;2.50;99.90;;;;;;5034413;28;20199;-92
2023/03/17 04:29:33;;;;;;;23.53;10.50;;;2.50;99.90;;;;;;5055057;28;20234;-94
2023/03/17 04:32:01;;;;;;;22.27;10.50;;;2.50;99.90;;;;;;5050331;28;20200;-95
2023/03/17 04:34:28;;;;;;;20.80;10.87;;;2.50;99.90;;;;;;5034800;28;20262;-95
2023/03/17 04:36:55;;;;;;;22.63;10.67;;;2.40;99.90;;;;;;5052969;28;20633;-95
2023/03/17 04:39:23;;;;;;;19.90;10.43;;;2.40;99.90;;;;;;5055260;28;20200;-95
2023/03/17 04:41:50;;;;;;;22.83;10.50;;;2.40;99.90;;;;;;5054129;28;20212;-94
2023/03/17 04:44:16;;;;;;;19.40;10.50;;;2.40;99.90;;;;;;5068349;28;20654;-94
2023/03/17 04:46:43;;;;;;;19.03;10.70;;;2.30;99.90;;;;;;5074641;28;20297;-94
2023/03/17 04:49:10;;;;;;;24.03;11.13;;;2.30;99.90;;;;;;5074984;28;20283;-95
2023/03/17 04:51:37;;;;;;;19.20;10.37;;;2.30;99.90;;;;;;5070691;28;20206;-95
2023/03/17 04:54:05;;;;;;;20.83;11.20;;;2.30;99.90;;;;;;5053098;28;20226;-93
2023/03/17 04:56:33;;;;;;;21.83;11.57;;;2.30;99.90;;;;;;5041961;28;20206;-93
2023/03/17 04:59:00;;;;;;;20.73;10.93;;;2.30;99.90;;;;;;5073503;28;20555;-94
2023/03/17 05:01:27;;;;;;;18.70;11.00;;;2.30;99.90;;;;;;5075790;28;20196;-93
2023/03/17 05:03:54;;;;;;;20.40;11.50;;;2.20;99.90;;;;;;5078446;28;20209;-95
2023/03/17 05:06:21;;;;;;;24.03;11.30;;;2.20;99.90;;;;;;5063383;28;20247;-94
2023/03/17 05:08:48;;;;;;;28.60;13.10;;;2.20;99.90;;;;;;5057355;28;20238;-94
2023/03/17 05:11:15;;;;;;;22.80;11.87;;;2.20;99.90;;;;;;5051283;28;20193;-92
2023/03/17 05:13:44;;;;;;;24.80;11.53;;;2.20;99.90;;;;;;5037605;28;20206;-94
2023/03/17 05:16:11;;;;;;;22.97;10.77;;;2.20;99.90;;;;;;5037400;28;20544;-93
2023/03/17 05:18:38;;;;;;;26.87;11.30;;;2.20;99.90;;;;;;5053963;28;20218;-93
2023/03/17 05:21:06;;;;;;;22.90;11.13;;;2.10;99.90;;;;;;5057360;28;20205;-95
2023/03/17 05:23:33;;;;;;;23.00;12.27;;;2.20;99.90;;;;;;5058138;28;20205;-93
2023/03/17 05:26:00;;;;;;;21.13;11.47;;;2.10;99.90;;;;;;5057042;28;22278;-95
2023/03/17 05:28:27;;;;;;;23.70;12.10;;;2.20;99.90;;;;;;5057732;28;20198;-94
2023/03/17 05:30:55;;;;;;;27.10;11.40;;;2.20;99.90;;;;;;5057945;28;20294;-93
2023/03/17 05:33:22;;;;;;;21.07;11.47;;;2.20;99.90;;;;;;5057308;28;20207;-93
2023/03/17 05:35:49;;;;;;;25.30;11.37;;;2.20;99.90;;;;;;5057350;28;20653;-95
2023/03/17 05:38:16;;;;;;;19.40;11.53;;;2.20;99.90;;;;;;5052465;28;20217;-94
2023/03/17 05:40:43;;;;;;;22.77;11.27;;;2.30;99.90;;;;;;5037135;28;20196;-94
2023/03/17 05:43:10;;;;;;;24.50;11.23;;;2.30;99.90;;;;;;5064732;28;20198;-94
2023/03/17 05:45:38;;;;;;;20.73;11.17;;;2.40;99.90;;;;;;5074467;28;20200;-94
2023/03/17 05:48:06;;;;;;;21.43;11.40;;;2.40;99.90;;;;;;5047472;28;20281;-94
2023/03/17 05:50:33;;;;;;;24.90;11.63;;;2.50;99.90;;;;;;5055552;28;20242;-95
2023/03/17 05:53:00;;;;;;;23.63;10.90;;;2.50;99.90;;;;;;5038151;28;20595;-93
2023/03/17 05:55:27;;;;;;;24.03;11.27;;;2.60;99.90;;;;;;5066708;28;20768;-93
2023/03/17 05:57:54;;;;;;;21.40;10.83;;;2.70;99.90;;;;;;5056671;28;20217;-92
2023/03/17 06:00:21;;;;;;;25.93;11.13;;;2.80;99.90;;;;;;5065823;28;20195;-92
2023/03/17 06:02:49;;;;;;;24.23;10.57;;;2.90;99.90;;;;;;5066860;28;20228;-94
2023/03/17 06:05:17;;;;;;;23.90;11.03;;;3.00;99.90;;;;;;5060675;28;20201;-95
2023/03/17 06:07:44;;;;;;;18.73;10.27;;;3.20;99.90;;;;;;5061004;28;20191;-93
2023/03/17 06:10:12;;;;;;;20.60;10.93;;;3.30;99.90;;;;;;5067712;28;20195;-93
2023/03/17 06:12:39;;;;;;;19.63;10.23;;;3.40;99.90;;;;;;5056333;28;20655;-94
2023/03/17 06:15:08;;;;;;;23.47;10.57;;;3.60;99.90;;;;;;5053813;28;20299;-94
2023/03/17 06:17:35;;;;;;;18.60;10.73;;;3.60;99.90;;;;;;5044632;28;20304;-92
2023/03/17 06:20:04;;;;;;;16.27;9.63;;;3.70;99.90;;;;;;5036374;28;20202;-92
2023/03/17 06:22:32;;;;;;;23.13;11.07;;;3.80;99.90;;;;;;5035967;28;20668;-93
2023/03/17 06:24:59;;;;;;;18.97;10.83;;;3.90;99.90;;;;;;5055195;28;20226;-92
2023/03/17 06:27:26;;;;;;;24.30;10.73;;;4.00;99.90;;;;;;5055949;28;20287;-92
2023/03/17 06:29:53;;;;;;;20.00;10.90;;;4.10;99.90;;;;;;5062383;28;20184;-92
2023/03/17 06:32:20;;;;;;;16.97;9.57;;;4.10;99.90;;;;;;5076004;28;20200;-93
2023/03/17 06:34:47;;;;;;;19.50;9.40;;;4.20;99.90;;;;;;5075888;28;20192;-92
2023/03/17 06:37:15;;;;;;;26.80;11.63;;;4.20;99.90;;;;;;5075741;28;20668;-93
2023/03/17 06:39:44;;;;;;;24.30;12.17;;;4.30;99.90;;;;;;5075790;28;20192;-93
2023/03/17 06:42:11;;;;;;;25.23;12.03;;;4.30;99.90;;;;;;5062659;28;20201;-91
2023/03/17 06:44:37;;;;;;;21.67;11.60;;;4.40;99.90;;;;;;5055625;28;20197;-93
2023/03/17 06:47:05;;;;;;;20.77;11.03;;;4.50;99.90;;;;;;5055557;28;20196;-93
2023/03/17 06:49:32;;;;;;;20.40;10.47;;;4.60;99.90;;;;;;5035812;28;20553;-92
2023/03/17 06:51:59;;;;;;;18.57;10.10;;;4.60;99.90;;;;;;5035669;28;20202;-93
2023/03/17 06:54:26;;;;;;;20.60;9.47;;;4.70;99.90;;;;;;5049601;28;20723;-92
2023/03/17 06:56:54;;;;;;;20.27;9.63;;;4.80;99.90;;;;;;5055138;28;20189;-93
2023/03/17 06:59:22;;;;;;;19.03;9.40;;;4.90;99.90;;;;;;5055014;28;20233;-92
2023/03/17 07:01:50;;;;;;;16.30;9.43;;;5.10;99.90;;;;;;5054941;28;20653;-92
2023/03/17 07:04:17;;;;;;;17.00;8.77;;;5.20;99.90;;;;;;5055216;28;20282;-93
2023/03/17 07:06:44;;;;;;;16.67;9.07;;;5.20;99.90;;;;;;5055322;28;20200;-92
2023/03/17 07:09:11;;;;;;;17.73;9.47;;;5.30;99.90;;;;;;5063735;28;20613;-93
2023/03/17 07:11:38;;;;;;;16.20;9.47;;;5.40;99.90;;;;;;5066100;28;20203;-93
2023/03/17 07:14:06;;;;;;;48.10;18.40;;;5.50;99.90;;;;;;5055058;28;20200;-92
2023/03/17 07:16:33;;;;;;;57.50;25.10;;;5.60;99.90;;;;;;5054647;28;20199;-92
2023/03/17 07:19:01;;;;;;;38.63;17.97;;;5.70;99.90;;;;;;5046873;28;20305;-92
2023/03/17 07:21:28;;;;;;;29.53;13.40;;;5.80;99.90;;;;;;5046061;28;20203;-93
2023/03/17 07:23:55;;;;;;;23.20;12.43;;;5.90;99.90;;;;;;5054444;28;20643;-93
2023/03/17 07:26:21;;;;;;;27.93;13.53;;;6.00;99.90;;;;;;5037416;28;20281;-93
2023/03/17 07:28:48;;;;;;;24.93;11.53;;;6.10;99.90;;;;;;5051174;28;20568;-92
2023/03/17 07:31:17;;;;;;;25.17;11.50;;;6.20;99.90;;;;;;5046132;28;20652;-93
2023/03/17 07:33:44;;;;;;;22.93;11.80;;;6.30;99.90;;;;;;5052166;28;20206;-94
2023/03/17 07:36:10;;;;;;;21.40;10.77;;;6.30;99.90;;;;;;5054317;28;20199;-93
2023/03/17 07:38:37;;;;;;;22.27;11.30;;;6.50;99.90;;;;;;5054260;28;20221;-91
2023/03/17 07:41:08;;;;;;;20.63;12.63;;;6.60;97.90;;;;;;5054493;28;20203;-93
2023/03/17 07:43:36;;;;;;;19.13;11.07;;;6.70;94.90;;;;;;5054793;28;20199;-93
2023/03/17 07:46:03;;;;;;;21.83;11.90;;;6.90;93.80;;;;;;5048287;28;20231;-92
2023/03/17 07:48:32;;;;;;;23.40;11.80;;;7.00;89.60;;;;;;5034278;28;20653;-92
2023/03/17 07:50:59;;;;;;;29.07;15.07;;;7.00;80.70;;;;;;5045014;28;20303;-93
2023/03/17 07:53:26;;;;;;;20.50;10.80;;;7.10;80.10;;;;;;5044920;28;20243;-93
2023/03/17 07:55:56;;;;;;;21.67;12.07;;;7.10;77.80;;;;;;5052418;28;20199;-92
2023/03/17 07:58:22;;;;;;;22.23;11.17;;;7.20;71.40;;;;;;5045528;28;20213;-91
2023/03/17 08:00:49;;;;;;;23.30;13.67;;;7.20;64.80;;;;;;5043868;28;20196;-93
2023/03/17 08:03:16;;;;;;;20.33;9.23;;;7.20;58.30;;;;;;5040559;28;20239;-92
2023/03/17 08:05:45;;;;;;;21.83;10.17;;;7.20;52.30;;;;;;5041449;28;20203;-92
2023/03/17 08:08:12;;;;;;;18.00;8.77;;;7.20;54.20;;;;;;5053726;28;20243;-92
2023/03/17 08:10:39;;;;;;;17.27;8.03;;;7.20;50.70;;;;;;5053470;28;20279;-93
2023/03/17 08:13:06;;;;;;;22.23;10.07;;;7.20;49.60;;;;;;5040683;28;20204;-92
2023/03/17 08:15:33;;;;;;;21.37;10.97;;;7.30;48.30;;;;;;5040063;28;20262;-92
2023/03/17 08:18:00;;;;;;;22.23;9.70;;;7.40;47.50;;;;;;5054328;28;20203;-92
2023/03/17 08:20:27;;;;;;;23.73;9.50;;;7.50;47.20;;;;;;5048139;28;20194;-91
2023/03/17 08:22:55;;;;;;;23.50;12.80;;;7.60;47.40;;;;;;5051981;28;20204;-92
2023/03/17 08:25:23;;;;;;;16.67;10.07;;;7.70;44.80;;;;;;5034562;28;20207;-92
2023/03/17 08:27:50;;;;;;;15.40;9.27;;;7.90;42.40;;;;;;5034169;28;20199;-92
2023/03/17 08:30:19;;;;;;;13.43;6.90;;;8.00;42.50;;;;;;5034327;28;20194;-92
2023/03/17 08:32:46;;;;;;;14.97;7.07;;;8.30;40.60;;;;;;5043176;28;20215;-92
2023/03/17 08:35:14;;;;;;;19.57;8.10;;;8.50;36.40;;;;;;5049181;28;20206;-92
2023/03/17 08:37:41;;;;;;;13.67;7.17;;;8.60;33.10;;;;;;5037392;28;20198;-94
2023/03/17 08:40:12;;;;;;;15.77;7.43;;;8.70;28.90;;;;;;5038299;28;20216;-92
2023/03/17 08:42:39;;;;;;;16.40;9.17;;;8.90;27.00;;;;;;5038439;28;20198;-93
2023/03/17 08:45:08;;;;;;;19.77;9.13;;;8.90;23.30;;;;;;5037650;28;20286;-93
2023/03/17 08:47:37;;;;;;;13.90;8.27;;;9.00;23.80;;;;;;5039379;28;20203;-93
2023/03/17 08:50:05;;;;;;;13.27;7.30;;;9.00;21.60;;;;;;5040651;28;20203;-93
2023/03/17 08:52:32;;;;;;;10.37;6.23;;;9.10;18.90;;;;;;5057604;28;20213;-92
2023/03/17 08:54:59;;;;;;;14.27;7.33;;;9.00;14.80;;;;;;5051689;28;20231;-93
2023/03/17 08:57:28;;;;;;;12.07;6.77;;;9.10;12.60;;;;;;5043074;28;20207;-92
2023/03/17 08:59:55;;;;;;;12.00;6.60;;;9.10;12.30;;;;;;5048822;28;20234;-93
2023/03/17 09:02:22;;;;;;;13.33;6.43;;;9.10;9.50;;;;;;5057755;28;20238;-93
2023/03/17 09:04:48;;;;;;;12.60;6.37;;;9.00;8.00;;;;;;5046900;28;20202;-92
2023/03/17 09:07:15;;;;;;;15.77;6.53;;;9.00;6.70;;;;;;5057261;28;20196;-94
2023/03/17 09:09:42;;;;;;;15.50;6.23;;;9.00;6.00;;;;;;5057705;28;20190;-92
2023/03/17 09:12:10;;;;;;;11.17;6.70;;;9.00;6.10;;;;;;5055121;28;20611;-93
2023/03/17 09:14:39;;;;;;;10.47;6.20;;;9.20;5.10;;;;;;5057243;28;20572;-92
2023/03/17 09:17:07;;;;;;;12.50;6.13;;;9.20;3.70;;;;;;5046634;28;20282;-92
2023/03/17 09:19:34;;;;;;;13.17;6.37;;;9.30;2.80;;;;;;5046191;28;20691;-93
2023/03/17 09:22:01;;;;;;;14.37;6.93;;;9.40;1.80;;;;;;5037227;28;20207;-94
2023/03/17 09:24:28;;;;;;;12.70;6.30;;;9.40;1.00;;;;;;5038346;28;20673;-92
2023/03/17 09:26:58;;;;;;;18.00;6.63;;;9.60;1.00;;;;;;5056934;28;20657;-92
2023/03/17 09:29:26;;;;;;;14.80;5.90;;;9.60;1.00;;;;;;5050925;28;20316;-93
2023/03/17 09:31:54;;;;;;;10.47;6.53;;;9.60;1.00;;;;;;5049545;28;20199;-92
2023/03/17 09:34:21;;;;;;;15.07;6.90;;;9.70;1.00;;;;;;5036841;28;20563;-93
2023/03/17 09:36:48;;;;;;;20.07;7.10;;;9.70;1.00;;;;;;5054694;28;20215;-92
2023/03/17 09:39:15;;;;;;;9.57;5.77;;;9.70;1.00;;;;;;5043750;28;20243;-93
2023/03/17 09:42:03;;;;;;;13.00;6.40;;;9.80;1.00;;;;;;5056212;28;20200;-92
2023/03/17 09:44:44;;;;;;;12.47;6.53;;;9.80;1.00;;;;;;5051140;28;20201;-93
2023/03/17 09:47:28;;;;;;;9.93;5.17;;;10.00;1.00;;;;;;5051305;28;20196;-92
2023/03/17 09:49:57;;;;;;;11.40;6.10;;;10.10;1.00;;;;;;5043391;28;20197;-92
2023/03/17 09:52:28;;;;;;;11.63;6.40;;;10.20;1.00;;;;;;5036852;28;20256;-92
2023/03/17 09:54:56;;;;;;;15.63;8.70;;;10.30;1.00;;;;;;5040874;28;20236;-92
2023/03/17 09:57:28;;;;;;;12.17;5.40;;;10.30;1.00;;;;;;5056500;28;20567;-93
2023/03/17 10:00:00;;;;;;;10.50;6.47;;;10.40;1.00;;;;;;5046873;28;20219;-93
2023/03/17 10:02:30;;;;;;;9.43;5.03;;;10.50;1.00;;;;;;5053679;28;20576;-94
2023/03/17 10:04:57;;;;;;;12.30;6.67;;;10.60;1.00;;;;;;5056420;28;20197;-92
2023/03/17 10:07:33;;;;;;;9.67;5.20;;;10.70;1.00;;;;;;5056321;28;20199;-94
2023/03/17 10:10:02;;;;;;;12.00;5.50;;;10.80;1.00;;;;;;5056112;28;20708;-93
2023/03/17 10:12:45;;;;;;;11.30;5.17;;;10.90;1.00;;;;;;5056157;28;20202;-92
2023/03/17 10:15:18;;;;;;;70.97;35.80;;;11.00;1.00;;;;;;5056359;28;20192;-93
2023/03/17 10:17:46;;;;;;;28.00;13.93;;;11.00;1.00;;;;;;5047119;28;20211;-93
2023/03/17 10:20:16;;;;;;;10.93;5.70;;;11.10;1.00;;;;;;5036656;28;20220;-93
2023/03/17 10:22:46;;;;;;;14.90;7.03;;;11.10;1.00;;;;;;5036260;28;20199;-93
2023/03/17 10:25:16;;;;;;;10.60;5.03;;;11.10;1.00;;;;;;5036288;28;20545;-92
2023/03/17 10:27:46;;;;;;;11.23;5.70;;;11.10;1.00;;;;;;5036034;28;20206;-92
2023/03/17 10:30:16;;;;;;;9.67;5.93;;;11.00;1.00;;;;;;5047094;28;20194;-92
2023/03/17 10:32:44;;;;;;;10.37;6.10;;;10.90;1.00;;;;;;5055779;28;20191;-91
2023/03/17 10:35:14;;;;;;;10.07;5.37;;;10.70;1.00;;;;;;5055565;28;20610;-91
2023/03/17 10:37:41;;;;;;;11.50;6.00;;;10.50;1.00;;;;;;5055661;28;20615;-91
2023/03/17 10:40:19;;;;;;;12.17;5.77;;;10.40;1.00;;;;;;5035773;28;20596;-90
2023/03/17 10:42:49;;;;;;;8.80;5.47;;;10.30;1.00;;;;;;5052742;28;20209;-91
2023/03/17 10:45:23;;;;;;;10.50;5.13;;;10.20;1.00;;;;;;5042271;28;20205;-92
2023/03/17 10:47:51;;;;;;;9.57;5.00;;;10.10;1.00;;;;;;5045076;28;20201;-91
2023/03/17 10:50:24;;;;;;;10.13;5.67;;;10.10;1.00;;;;;;5055589;28;20204;-92
2023/03/17 10:52:59;;;;;;;8.70;5.27;;;10.10;1.00;;;;;;5055527;28;20279;-91
2023/03/17 10:55:31;;;;;;;10.73;5.50;;;10.00;1.00;;;;;;5055374;28;20190;-92
2023/03/17 10:58:03;;;;;;;12.40;6.50;;;10.10;1.00;;;;;;5055125;28;20652;-92
2023/03/17 11:00:34;;;;;;;11.40;5.43;;;10.20;1.00;;;;;;5061289;28;20686;-91
2023/03/17 11:03:09;;;;;;;8.63;5.40;;;10.20;1.00;;;;;;5066320;28;20197;-92
2023/03/17 11:05:39;;;;;;;15.57;7.43;;;10.20;1.00;;;;;;5055289;28;20563;-91
2023/03/17 11:08:14;;;;;;;16.07;8.77;;;10.30;1.00;;;;;;5055490;28;20193;-92
2023/03/17 11:10:41;;;;;;;10.17;5.90;;;10.30;1.00;;;;;;5055665;28;20551;-91
2023/03/17 11:13:09;;;;;;;11.77;6.53;;;10.40;1.00;;;;;;5055106;28;20198;-92
2023/03/17 11:15:41;;;;;;;14.67;7.07;;;10.40;1.00;;;;;;5054921;28;20653;-92
2023/03/17 11:18:14;;;;;;;11.80;5.73;;;10.40;1.00;;;;;;5055069;28;20182;-92
2023/03/17 11:20:48;;;;;;;14.10;6.67;;;10.40;1.00;;;;;;5054906;28;20209;-93
2023/03/17 11:23:34;;;;;;;11.03;5.83;;;10.50;1.00;;;;;;5054835;28;20203;-91
2023/03/17 11:26:16;;;;;;;11.20;5.70;;;10.60;1.00;;;;;;5053669;28;20197;-92
2023/03/17 11:28:49;;;;;;;9.33;5.23;;;10.70;1.00;;;;;;5054987;28;20547;-92
2023/03/17 11:31:24;;;;;;;9.83;4.80;;;10.80;1.00;;;;;;5034945;28;20192;-92
2023/03/17 11:33:57;;;;;;;10.87;5.53;;;11.00;1.00;;;;;;5034942;28;20182;-92
2023/03/17 11:36:42;;;;;;;13.20;6.23;;;11.10;1.00;;;;;;5034878;28;20202;-92
2023/03/17 11:39:14;;;;;;;9.47;5.13;;;11.10;1.00;;;;;;5046664;28;20724;-91
2023/03/17 11:42:00;;;;;;;13.43;6.10;;;11.10;1.00;;;;;;5054547;28;20195;-92
2023/03/17 11:44:57;;;;;;;8.60;5.13;;;11.20;1.00;;;;;;5054357;28;20202;-92
2023/03/17 11:47:36;;;;;;;8.97;5.53;;;11.30;1.00;;;;;;5052132;28;20681;-92
2023/03/17 11:50:11;;;;;;;10.23;5.70;;;11.40;1.00;;;;;;5054765;28;20188;-92
2023/03/17 11:52:52;;;;;;;17.50;5.73;;;11.60;1.00;;;;;;5034709;28;20190;-93
2023/03/17 11:55:23;;;;;;;16.07;7.37;;;11.60;1.00;;;;;;5034876;28;20193;-91
2023/03/17 11:57:56;;;;;;;18.43;9.57;;;11.60;1.00;;;;;;5034595;28;20652;-92
2023/03/17 12:00:28;;;;;;;11.77;5.70;;;11.60;1.00;;;;;;5034153;28;20683;-92
2023/03/17 12:03:00;;;;;;;12.87;6.80;;;11.50;1.00;;;;;;5034602;28;20206;-92
2023/03/17 12:05:28;;;;;;;20.40;10.70;;;11.60;1.00;;;;;;5047152;28;20194;-91
2023/03/17 12:08:00;;;;;;;11.77;6.57;;;11.70;1.00;;;;;;5074483;28;20260;-93
2023/03/17 12:10:33;;;;;;;16.27;9.20;;;11.80;1.00;;;;;;5057159;28;20195;-93
2023/03/17 12:13:03;;;;;;;16.40;6.53;;;11.90;1.00;;;;;;5068685;28;20187;-92
2023/03/17 12:15:35;;;;;;;17.50;8.10;;;12.00;1.00;;;;;;5076018;28;20203;-92
2023/03/17 12:18:09;;;;;;;12.43;5.13;;;12.00;1.00;;;;;;5078557;28;20211;-92
2023/03/17 12:20:46;;;;;;;9.50;5.70;;;12.00;1.00;;;;;;5078267;28;20195;-92
2023/03/17 12:23:28;;;;;;;10.13;5.43;;;12.10;1.00;;;;;;5073907;28;20685;-92
2023/03/17 12:26:00;;;;;;;9.97;6.10;;;12.20;1.00;;;;;;5056508;28;20186;-91
2023/03/17 12:28:30;;;;;;;9.90;6.07;;;12.20;1.00;;;;;;5066307;28;20186;-91
2023/03/17 12:31:04;;;;;;;14.10;7.53;;;12.20;1.00;;;;;;5077985;28;20348;-92
2023/03/17 12:33:37;;;;;;;13.17;7.47;;;12.20;1.00;;;;;;5078503;28;20180;-94
2023/03/17 12:36:06;;;;;;;12.87;7.50;;;12.10;1.00;;;;;;5078370;28;20211;-93
2023/03/17 12:38:39;;;;;;;13.93;9.33;;;12.10;1.00;;;;;;5077782;28;20196;-91
2023/03/17 12:41:24;;;;;;;14.17;8.57;;;12.20;1.00;;;;;;5076216;28;20597;-91
2023/03/17 12:44:03;;;;;;;36.07;21.37;;;12.20;1.00;;;;;;5058150;28;20204;-93
2023/03/17 12:47:09;;;;;;;47.53;28.03;;;12.20;1.00;;;;;;5037921;28;20249;-91
2023/03/17 12:49:56;;;;;;;13.23;7.03;;;12.40;1.00;;;;;;5031833;28;20201;-92
2023/03/17 12:52:36;;;;;;;13.57;6.73;;;12.40;1.00;;;;;;5038029;28;20214;-93
2023/03/17 12:55:12;;;;;;;17.33;10.30;;;12.50;1.00;;;;;;5037804;28;20237;-93
2023/03/17 12:57:41;;;;;;;26.97;13.93;;;12.60;1.00;;;;;;5061200;28;20220;-92